createdAt,value
2022-12-04T07:02:35.069Z,99730.91
2022-12-04T08:25:52.852Z,99741.81
2022-12-04T08:28:19.504Z,99746.47
2022-12-04T08:30:46.165Z,99759.19
2022-12-04T08:33:12.798Z,99755.28
2022-12-04T08:35:39.396Z,99744.50
2022-12-04T08:38:05.981Z,99743.75
2022-12-04T08:40:35.869Z,99752.53
2022-12-04T08:43:03.439Z,99751.38
2022-12-04T08:45:30.565Z,99746.47
2022-12-04T08:47:59.441Z,99759.56
2022-12-04T08:50:27.744Z,99754.28
2022-12-04T08:52:57.291Z,99745.84
2022-12-04T08:55:25.570Z,99750.03
2022-12-04T08:57:53.128Z,99739.13
2022-12-04T09:00:20.799Z,99753.66
2022-12-04T09:02:53.866Z,99747.38
2022-12-04T09:05:21.688Z,99763.47
2022-12-04T09:07:48.952Z,99761.28
2022-12-04T09:10:19.412Z,99758.81
2022-12-04T09:12:46.737Z,99757.16
2022-12-04T09:15:16.693Z,99753.16
2022-12-04T09:17:44.017Z,99757.16
2022-12-04T09:20:13.830Z,99754.13
2022-12-04T09:23:02.703Z,99754.81
2022-12-04T09:25:28.596Z,99749.41
2022-12-04T09:27:56.139Z,99756.63
2022-12-04T09:30:24.160Z,99755.59
2022-12-04T09:32:51.577Z,99749.00
2022-12-04T09:35:18.826Z,99740.91
2022-12-04T09:37:46.193Z,99740.38
2022-12-04T09:40:37.143Z,99755.06
2022-12-04T09:43:11.955Z,99751.81
2022-12-04T09:45:53.616Z,99756.78
2022-12-04T09:48:23.436Z,99743.72
2022-12-04T09:50:51.745Z,99744.88
2022-12-04T09:53:30.247Z,99739.59
2022-12-04T09:56:27.994Z,99746.41
2022-12-04T09:59:11.285Z,99738.97
2022-12-04T10:01:50.806Z,99731.00
2022-12-04T10:04:18.605Z,99731.00
2022-12-04T10:06:55.442Z,99733.31
2022-12-04T10:09:30.033Z,99721.59
2022-12-04T10:12:07.954Z,99722.91
2022-12-04T10:14:59.672Z,99725.91
2022-12-04T10:17:32.247Z,99726.28
2022-12-04T10:20:18.832Z,99731.88
2022-12-04T10:23:14.132Z,99734.00
2022-12-04T10:25:42.025Z,99735.31
2022-12-04T10:28:27.883Z,99740.91
2022-12-04T10:30:58.675Z,99727.84
2022-12-04T10:33:47.899Z,99728.06
2022-12-04T10:36:21.220Z,99732.53
2022-12-04T10:38:54.933Z,99740.31
2022-12-04T10:41:39.377Z,99724.56
2022-12-04T10:44:07.270Z,99724.75
2022-12-04T10:46:43.219Z,99717.31
2022-12-04T10:49:29.051Z,99730.84
2022-12-04T10:51:57.133Z,99731.00
2022-12-04T10:54:58.812Z,99716.81
2022-12-04T10:57:58.387Z,99703.88
2022-12-04T11:00:32.432Z,99707.03
2022-12-04T11:03:03.567Z,99695.91
2022-12-04T11:05:36.329Z,99673.22
2022-12-04T11:08:05.637Z,99679.38
2022-12-04T11:10:43.368Z,99673.19
2022-12-04T11:13:20.007Z,99672.69
2022-12-04T11:15:51.611Z,99674.28
2022-12-04T11:18:30.817Z,99672.78
2022-12-04T11:21:01.251Z,99680.56
2022-12-04T11:23:33.787Z,99668.69
2022-12-04T11:26:05.774Z,99665.88
2022-12-04T11:28:42.997Z,99659.59
2022-12-04T11:31:16.744Z,99668.00
2022-12-04T11:33:51.804Z,99658.25
2022-12-04T11:36:27.436Z,99661.88
2022-12-04T11:39:06.863Z,99660.59
2022-12-04T11:41:36.265Z,99669.66
2022-12-04T11:44:06.953Z,99660.72
2022-12-04T11:46:37.022Z,99641.06
2022-12-04T11:49:08.572Z,99650.34
2022-12-04T11:51:39.282Z,99661.28
2022-12-04T11:54:38.404Z,99649.38
2022-12-04T11:57:31.830Z,99653.63
2022-12-04T12:00:18.785Z,99658.78
2022-12-04T12:03:01.174Z,99658.56
2022-12-04T12:05:41.693Z,99660.53
2022-12-04T12:08:35.767Z,99664.22
2022-12-04T12:11:25.619Z,99661.25
2022-12-04T12:14:24.961Z,99662.25
2022-12-04T12:17:07.446Z,99657.25
2022-12-04T12:19:59.840Z,99646.19
2022-12-04T12:22:29.612Z,99641.16
2022-12-04T12:25:22.267Z,99625.50
2022-12-04T12:28:22.143Z,99634.75
2022-12-04T12:31:06.105Z,99623.19
2022-12-04T12:34:00.506Z,99630.81
2022-12-04T12:36:33.701Z,99629.16
2022-12-04T12:39:10.141Z,99621.75
2022-12-04T12:41:46.078Z,99630.00
2022-12-04T12:48:43.679Z,99624.84
2022-12-04T12:51:39.984Z,99612.19
2022-12-04T12:54:31.469Z,99625.69
2022-12-04T12:57:10.536Z,99621.75
2022-12-04T12:59:43.273Z,99620.28
2022-12-04T13:02:34.588Z,99623.88
2022-12-04T13:05:12.882Z,99614.63
2022-12-04T13:12:06.474Z,99617.69
2022-12-04T13:14:33.832Z,99622.78
2022-12-04T13:17:14.916Z,99608.56
2022-12-04T13:19:49.897Z,99610.75
2022-12-04T13:22:43.851Z,99618.53
2022-12-04T13:25:51.258Z,99630.88
2022-12-04T13:28:40.885Z,99630.78
2022-12-04T13:31:56.147Z,99643.00
2022-12-04T13:34:58.479Z,99633.53
2022-12-04T13:37:44.216Z,99621.19
2022-12-04T13:40:45.771Z,99615.72
2022-12-04T13:43:32.630Z,99623.00
2022-12-04T13:46:09.802Z,99623.16
2022-12-04T13:48:42.950Z,99617.03
2022-12-04T13:51:38.850Z,99627.25
2022-12-04T13:54:11.988Z,99628.91
2022-12-04T13:56:41.473Z,99619.56
2022-12-04T13:59:29.284Z,99643.72
2022-12-04T14:02:28.334Z,99635.97
2022-12-04T14:05:11.087Z,99632.81
2022-12-04T14:12:01.199Z,99641.59
2022-12-04T14:14:31.470Z,99644.53
2022-12-04T14:16:59.781Z,99644.03
2022-12-04T14:19:35.125Z,99648.53
2022-12-04T14:22:02.813Z,99647.19
2022-12-04T14:24:38.711Z,99645.53
2022-12-04T14:27:34.196Z,99645.03
2022-12-04T14:30:02.995Z,99646.19
2022-12-04T14:32:35.186Z,99634.63
2022-12-04T14:35:15.119Z,99634.81
2022-12-04T14:37:52.354Z,99632.97
2022-12-04T14:40:27.248Z,99644.44
2022-12-04T14:43:02.910Z,99629.38
2022-12-04T14:45:57.923Z,99627.41
2022-12-04T14:48:57.547Z,99615.09
2022-12-04T14:51:57.978Z,99624.03
2022-12-04T14:54:43.480Z,99629.00
2022-12-04T14:57:29.321Z,99617.59
2022-12-04T14:59:57.229Z,99620.25
2022-12-04T15:02:41.288Z,99619.06
2022-12-04T15:05:12.482Z,99614.59
2022-12-04T15:07:53.949Z,99621.91
2022-12-04T15:10:55.708Z,99620.34
2022-12-04T15:13:33.323Z,99616.75
2022-12-04T15:16:16.446Z,99613.34
2022-12-04T15:18:55.843Z,99618.22
2022-12-04T15:21:31.192Z,99611.53
2022-12-04T15:23:59.407Z,99621.53
2022-12-04T15:26:27.733Z,99606.50
2022-12-04T15:29:02.279Z,99618.72
2022-12-04T15:31:40.343Z,99613.28
2022-12-04T15:34:13.488Z,99617.44
2022-12-04T15:36:46.765Z,99619.94
2022-12-04T15:39:29.685Z,99621.91
2022-12-04T15:42:39.417Z,99614.81
2022-12-04T15:45:09.926Z,99625.06
2022-12-04T15:47:53.919Z,99625.38
2022-12-04T15:50:28.061Z,99625.06
2022-12-04T15:53:07.303Z,99626.22
2022-12-04T15:55:46.771Z,99606.69
2022-12-04T15:58:31.906Z,99618.59
2022-12-04T16:01:08.218Z,99618.28
2022-12-04T16:04:02.857Z,99620.56
2022-12-04T16:06:37.408Z,99627.03
2022-12-04T16:09:25.843Z,99628.75
2022-12-04T16:12:06.165Z,99629.00
2022-12-04T16:14:35.334Z,99634.13
2022-12-04T16:17:06.239Z,99625.50
2022-12-04T16:19:45.909Z,99621.09
2022-12-04T16:22:20.210Z,99632.59
2022-12-04T16:24:50.602Z,99622.41
2022-12-04T16:27:24.130Z,99633.28
2022-12-04T16:29:52.999Z,99631.88
2022-12-04T16:32:25.007Z,99631.66
2022-12-04T16:34:52.577Z,99644.06
2022-12-04T16:37:21.638Z,99638.91
2022-12-04T16:39:53.282Z,99640.44
2022-12-04T16:46:38.342Z,99650.84
2022-12-04T16:49:12.933Z,99642.88
2022-12-04T16:51:50.806Z,99647.84
2022-12-04T16:54:24.707Z,99648.22
2022-12-04T16:56:52.851Z,99636.28
2022-12-04T16:59:20.671Z,99631.66
2022-12-04T17:01:54.211Z,99634.47
2022-12-04T17:04:57.735Z,99629.66
2022-12-04T17:07:40.963Z,99653.97
2022-12-04T17:10:11.652Z,99643.75
2022-12-04T17:12:41.722Z,99658.78
2022-12-04T17:15:19.672Z,99652.66
2022-12-04T17:17:55.117Z,99648.38
2022-12-04T17:20:32.459Z,99654.31
2022-12-04T17:23:15.024Z,99649.47
2022-12-04T17:26:24.701Z,99651.28
2022-12-04T17:32:12.121Z,99640.56
2022-12-04T17:35:38.605Z,99642.25
2022-12-04T23:35:42.151Z,99365.28
2022-12-04T23:38:12.474Z,99356.69
2022-12-04T23:40:49.924Z,99361.72
2022-12-04T23:43:34.687Z,99364.72
2022-12-04T23:46:10.901Z,99373.97
2022-12-04T23:48:40.051Z,99377.88
2022-12-04T23:51:21.417Z,99374.69
2022-12-04T23:53:52.708Z,99376.44
2022-12-04T23:56:28.708Z,99370.31
2022-12-04T23:59:03.963Z,99360.31
